Time;durP1;ratioP1;P1;durP2;ratioP2;P2;SDS_P1;SDS_P2;PMS_P1;PMS_P2;Temp;Humidity;BMP_temperature;BMP_pressure;BME280_temperature;BME280_humidity;BME280_pressure;Samples;Min_cycle;Max_cycle;Signal;HPM_P1;HPM_P2
2022/04/20 00:00:37;;;;;;;;;21.50;17.50;;;;;14.62;37.83;98250.69;4835726;28;103230;-80
2022/04/20 00:03:05;;;;;;;;;15.75;14.00;;;;;14.58;37.79;98242.19;4860554;28;102505;-80
2022/04/20 00:05:33;;;;;;;;;16.50;14.50;;;;;14.58;38.23;98239.47;4855500;28;103715;-80
2022/04/20 00:08:00;;;;;;;;;19.25;17.00;;;;;14.57;37.92;98245.13;4861070;28;102206;-79
2022/04/20 00:10:29;;;;;;;;;20.50;17.25;;;;;14.57;37.89;98239.69;4860952;28;102948;-79
2022/04/20 00:12:56;;;;;;;;;2.25;2.00;;;;;14.56;38.43;98233.41;4842955;28;103366;-80
2022/04/20 00:15:23;;;;;;;;;17.75;17.75;;;;;14.58;37.78;98241.34;4855797;28;104055;-79
2022/04/20 00:17:50;;;;;;;;;18.00;16.00;;;;;14.56;38.33;98233.41;4857103;28;104184;-80
2022/04/20 00:20:17;;;;;;;;;20.00;17.75;;;;;14.56;37.74;98229.88;4855576;28;102432;-80
2022/04/20 00:22:44;;;;;;;;;20.25;17.00;;;;;14.55;38.38;98226.31;4858704;28;104128;-79
2022/04/20 00:25:11;;;;;;;;;19.75;16.25;;;;;14.56;38.50;98233.41;4862076;28;104092;-79
2022/04/20 00:27:38;;;;;;;;;19.25;17.00;;;;;14.55;38.02;98228.19;4863838;28;102535;-79
2022/04/20 00:30:09;;;;;;;;;18.75;16.75;;;;;14.54;38.13;98234.72;4842161;28;102181;-79
2022/04/20 00:32:36;;;;;;;;;18.75;17.00;;;;;14.53;37.96;98233.91;4856921;28;102696;-79
2022/04/20 00:35:03;;;;;;;;;18.50;14.25;;;;;14.52;38.13;98236.84;4839365;28;104096;-79
2022/04/20 00:37:30;;;;;;;;;21.25;19.75;;;;;14.50;37.82;98233.53;4856985;28;104028;-79
2022/04/20 00:39:57;;;;;;;;;17.00;15.50;;;;;14.50;38.33;98239.00;4860053;28;102558;-79
2022/04/20 00:42:24;;;;;;;;;23.00;19.00;;;;;14.48;38.16;98233.78;4862836;28;104314;-79
2022/04/20 00:44:51;;;;;;;;;22.00;18.00;;;;;14.48;38.56;98231.06;4846798;28;103974;-79
2022/04/20 00:47:18;;;;;;;;;23.25;15.50;;;;;14.46;38.22;98224.16;4859565;28;102137;-80
2022/04/20 00:49:46;;;;;;;;;20.25;18.00;;;;;14.44;37.89;98224.44;4867530;28;102104;-79
2022/04/20 00:52:13;;;;;;;;;19.00;15.00;;;;;14.43;38.01;98216.50;4847130;28;102324;-79
2022/04/20 00:54:40;;;;;;;;;19.25;18.50;;;;;14.43;38.03;98221.94;4847701;28;104181;-79
2022/04/20 00:57:07;;;;;;;;;24.75;21.00;;;;;14.43;37.97;98224.66;4846665;28;102324;-79
2022/04/20 00:59:35;;;;;;;;;21.25;18.00;;;;;14.45;37.44;98225.25;4867537;28;102151;-80
2022/04/20 01:02:02;;;;;;;;;20.00;16.50;;;;;14.45;37.71;98231.53;4859456;28;102869;-79
2022/04/20 01:04:32;;;;;;;;;23.00;18.75;;;;;14.43;38.14;98230.91;4865938;28;104300;-79
2022/04/20 01:07:00;;;;;;;;;18.75;17.00;;;;;14.43;37.63;98227.38;4843852;28;102562;-79
2022/04/20 01:09:27;;;;;;;;;21.75;20.75;;;;;14.42;37.84;98228.44;4864615;28;102485;-79
2022/04/20 01:11:54;;;;;;;;;16.25;16.25;;;;;14.40;38.02;98228.69;4861109;28;102178;-79
2022/04/20 01:14:21;;;;;;;;;20.50;18.00;;;;;14.39;37.68;98229.72;4865815;28;103904;-79
2022/04/20 01:16:48;;;;;;;;;21.75;19.50;;;;;14.39;38.02;98231.63;4861178;28;103424;-79
2022/04/20 01:19:15;;;;;;;;;22.50;17.00;;;;;14.38;37.90;98235.41;4859803;28;102939;-79
2022/04/20 01:21:42;;;;;;;;;18.00;17.50;;;;;14.38;37.64;98235.41;4863973;28;102571;-79
2022/04/20 01:24:08;;;;;;;;;23.75;22.50;;;;;14.37;38.04;98233.72;4859994;28;104084;-79
2022/04/20 01:26:36;;;;;;;;;18.75;18.00;;;;;14.37;38.48;98233.72;4867022;28;102674;-79
2022/04/20 01:29:03;;;;;;;;;21.75;20.75;;;;;14.36;38.11;98230.22;4843663;28;102652;-79
2022/04/20 01:31:30;;;;;;;;;21.00;20.00;;;;;14.35;37.38;98223.06;4846305;28;103207;-79
2022/04/20 01:33:57;;;;;;;;;20.50;17.75;;;;;14.34;38.07;98226.03;4858286;28;104301;-79
2022/04/20 01:36:24;;;;;;;;;22.50;20.50;;;;;14.34;37.58;98220.59;4860783;28;102148;-79
2022/04/20 01:38:51;;;;;;;;;22.75;19.75;;;;;14.33;38.32;98222.47;4864132;28;102308;-79
2022/04/20 01:41:18;;;;;;;;;23.25;19.25;;;;;14.32;37.57;98216.19;4861989;28;102222;-79
2022/04/20 01:43:45;;;;;;;;;19.50;18.00;;;;;14.34;37.64;98217.88;4859989;28;104132;-79
2022/04/20 01:46:12;;;;;;;;;18.25;17.00;;;;;14.32;37.85;98209.94;4857474;28;102585;-79
2022/04/20 01:48:39;;;;;;;;;18.75;17.25;;;;;14.32;38.02;98220.81;4871444;28;102331;-79
2022/04/20 01:53:51;;;;;;;;;20.50;19.00;;;;;14.29;37.87;98221.28;4860068;28;104129;-79
2022/04/20 01:56:18;;;;;;;;;21.50;19.75;;;;;14.32;37.33;98217.28;4862677;28;102406;-79
2022/04/20 01:58:45;;;;;;;;;22.50;20.25;;;;;14.29;38.18;98222.13;4849715;28;102121;-79
2022/04/20 02:03:57;;;;;;;;;21.50;19.25;;;;;14.26;37.54;98225.31;4860072;28;104299;-79
2022/04/20 02:06:24;;;;;;;;;20.75;20.00;;;;;14.26;37.66;98222.59;4861273;28;103241;-79
2022/04/20 02:08:51;;;;;;;;;25.00;22.75;;;;;14.26;38.11;98228.03;4860720;28;102270;-79
2022/04/20 02:11:18;;;;;;;;;23.50;21.25;;;;;14.24;38.12;98224.69;4845263;28;102537;-79
2022/04/20 02:13:46;;;;;;;;;20.00;19.00;;;;;14.25;38.15;98220.09;4864594;28;103063;-79
2022/04/20 02:16:14;;;;;;;;;26.25;20.25;;;;;14.22;37.84;98215.13;4860767;28;103939;-79
2022/04/20 02:18:41;;;;;;;;;24.00;22.25;;;;;14.22;37.23;98217.84;4861609;28;102346;-79
2022/04/20 02:21:07;;;;;;;;;22.50;20.25;;;;;14.20;37.87;98212.63;4862079;28;102924;-79
2022/04/20 02:23:34;;;;;;;;;25.75;20.50;;;;;14.21;37.86;98214.31;4858042;28;104079;-79
2022/04/20 02:26:02;;;;;;;;;22.00;20.25;;;;;14.21;37.38;98227.91;4863042;28;102545;-79
2022/04/20 02:28:29;;;;;;;;;23.75;19.50;;;;;14.20;38.26;98223.53;4862026;28;102571;-79
2022/04/20 02:30:56;;;;;;;;;25.25;24.25;;;;;14.19;37.90;98210.97;4865833;28;102231;-79
2022/04/20 02:33:25;;;;;;;;;23.25;20.00;;;;;14.20;37.93;98206.38;4856183;28;106872;-80
2022/04/20 02:35:52;;;;;;;;;25.75;21.50;;;;;14.17;37.42;98207.69;4844549;28;102638;-79
2022/04/20 02:38:19;;;;;;;;;25.00;23.00;;;;;14.18;37.22;98209.31;4830547;28;104360;-79
2022/04/20 02:40:46;;;;;;;;;23.25;22.25;;;;;14.16;37.68;98206.03;4844833;28;102920;-79
2022/04/20 02:43:13;;;;;;;;;23.75;21.25;;;;;14.17;38.01;98204.97;4860511;28;104089;-79
2022/04/20 02:45:40;;;;;;;;;28.00;23.25;;;;;14.16;37.62;98206.03;4834784;28;102197;-79
2022/04/20 02:48:07;;;;;;;;;26.75;23.00;;;;;14.16;37.47;98192.41;4838090;28;102448;-79
2022/04/20 02:50:34;;;;;;;;;29.50;24.25;;;;;14.16;38.00;98191.59;4862251;28;103318;-79
2022/04/20 02:53:01;;;;;;;;;25.00;21.50;;;;;14.14;37.03;98178.22;4860246;28;104087;-79
2022/04/20 02:55:28;;;;;;;;;30.50;26.00;;;;;14.14;38.05;98180.09;4860853;28;102087;-79
2022/04/20 02:57:55;;;;;;;;;28.00;23.00;;;;;14.13;37.54;98181.19;4860523;28;104080;-79
2022/04/20 03:00:22;;;;;;;;;29.50;22.50;;;;;14.16;37.14;98184.25;4858860;28;102990;-79
2022/04/20 03:02:49;;;;;;;;;27.50;24.25;;;;;14.15;37.86;98184.50;4857346;28;104071;-79
2022/04/20 03:05:16;;;;;;;;;26.25;21.75;;;;;14.12;37.87;98185.78;4854446;28;102766;-79
2022/04/20 03:07:43;;;;;;;;;23.75;20.00;;;;;14.14;37.73;98188.25;4860205;28;103223;-79
2022/04/20 03:10:10;;;;;;;;;28.00;23.25;;;;;14.15;37.55;98188.03;4861212;28;104183;-79
2022/04/20 03:12:38;;;;;;;;;27.50;26.00;;;;;14.15;37.76;98182.59;4858842;28;104159;-79
2022/04/20 03:15:05;;;;;;;;;25.25;22.50;;;;;14.16;37.87;98188.88;4863077;28;104212;-79
2022/04/20 03:17:32;;;;;;;;;26.50;24.00;;;;;14.18;37.63;98193.00;4859124;28;102587;-79
2022/04/20 03:19:59;;;;;;;;;29.25;25.75;;;;;14.19;37.15;98189.22;4843457;28;102187;-79
2022/04/20 03:22:26;;;;;;;;;28.25;22.75;;;;;14.18;37.00;98190.28;4860709;28;104856;-79
2022/04/20 03:24:53;;;;;;;;;28.75;24.00;;;;;14.16;37.77;98181.53;4855539;28;102231;-79
2022/04/20 03:27:21;;;;;;;;;29.50;24.75;;;;;14.16;36.94;98189.69;4862289;28;103466;-79
2022/04/20 03:29:48;;;;;;;;;29.00;25.25;;;;;14.15;36.87;98182.59;4864212;28;102604;-79
2022/04/20 03:32:15;;;;;;;;;32.00;25.50;;;;;14.15;37.69;98184.50;4855903;28;104098;-79
2022/04/20 03:34:42;;;;;;;;;29.50;25.00;;;;;14.15;37.55;98184.50;4857066;28;104427;-79
2022/04/20 03:37:12;;;;;;;;;30.50;27.00;;;;;14.13;37.37;98187.47;4855030;28;102337;-79
2022/04/20 03:39:40;;;;;;;;;27.50;24.75;;;;;14.12;37.60;98184.97;4858231;28;102120;-79
2022/04/20 03:42:07;;;;;;;;;26.00;23.50;;;;;14.11;37.90;98183.31;4840789;28;104176;-79
2022/04/20 03:44:35;;;;;;;;;31.00;28.00;;;;;14.11;37.29;98183.31;4858178;28;102377;-79
2022/04/20 03:47:03;;;;;;;;;29.50;23.00;;;;;14.10;37.60;98182.47;4858541;28;103556;-79
2022/04/20 03:49:30;;;;;;;;;29.25;26.00;;;;;14.08;37.01;98187.34;4863644;28;102374;-79
2022/04/20 03:51:57;;;;;;;;;30.00;25.00;;;;;14.08;37.88;98186.50;4868679;28;104108;-79
2022/04/20 03:54:24;;;;;;;;;33.00;29.50;;;;;14.07;37.64;98180.22;4854204;28;102508;-79
2022/04/20 03:57:03;;;;;;;;;26.25;24.75;;;;;14.05;37.09;98185.06;4863679;28;102437;-79
2022/04/20 03:59:34;;;;;;;;;27.50;26.00;;;;;14.05;37.35;98195.94;4859174;28;102916;-79
2022/04/20 04:02:01;;;;;;;;;32.00;27.25;;;;;14.04;37.13;98186.13;4863185;28;104035;-79
2022/04/20 04:04:28;;;;;;;;;31.50;27.00;;;;;14.04;37.89;98180.72;4862635;28;102448;-80
2022/04/20 04:06:54;;;;;;;;;28.75;24.75;;;;;14.05;37.13;98187.78;4863210;28;102444;-79
2022/04/20 04:09:21;;;;;;;;;30.50;25.25;;;;;14.04;37.66;98186.13;4865411;28;103778;-79
2022/04/20 04:11:48;;;;;;;;;28.75;26.50;;;;;14.03;37.84;98189.91;4866135;28;104143;-79
2022/04/20 04:14:17;;;;;;;;;30.00;26.00;;;;;14.04;37.86;98185.31;4863932;28;102252;-79
2022/04/20 04:16:44;;;;;;;;;30.00;26.50;;;;;14.03;37.55;98184.47;4863761;28;102166;-79
2022/04/20 04:19:11;;;;;;;;;30.25;28.00;;;;;14.00;36.94;98187.69;4844746;28;102704;-79
2022/04/20 04:21:39;;;;;;;;;35.75;29.25;;;;;14.00;37.37;98198.53;4860697;28;104100;-79
2022/04/20 04:24:07;;;;;;;;;28.50;25.75;;;;;13.99;37.03;98196.88;4863674;28;103797;-79
2022/04/20 04:26:37;;;;;;;;;32.50;29.00;;;;;13.98;37.61;98203.38;4867948;28;102480;-79
2022/04/20 04:29:04;;;;;;;;;27.50;25.00;;;;;13.96;37.89;98200.03;4865058;28;102220;-79
2022/04/20 04:31:31;;;;;;;;;31.50;24.50;;;;;13.96;37.41;98194.59;4866896;28;104327;-79
2022/04/20 04:33:58;;;;;;;;;26.25;25.50;;;;;13.97;36.80;98199.00;4860714;28;102698;-79
2022/04/20 04:36:25;;;;;;;;;25.75;21.50;;;;;13.97;37.81;98199.00;4867723;28;102464;-80
2022/04/20 04:38:52;;;;;;;;;29.75;28.50;;;;;13.90;38.52;98197.44;4866195;28;102710;-78
2022/04/20 04:41:19;;;;;;;;;30.25;29.00;;;;;13.92;38.12;98203.47;4847624;28;104063;-81
2022/04/20 04:43:46;;;;;;;;;32.00;29.00;;;;;13.95;38.87;98198.41;4867078;28;102095;-81
2022/04/20 04:48:58;;;;;;;;;32.00;29.50;;;;;14.01;40.59;98208.34;4855608;28;102694;-81
2022/04/20 04:51:25;;;;;;;;;34.00;26.25;;;;;14.02;40.11;98206.44;4827791;28;104291;-81
2022/04/20 04:53:52;;;;;;;;;32.75;29.25;;;;;14.01;39.30;98202.06;4858439;28;102773;-81
2022/04/20 04:56:19;;;;;;;;;35.00;27.50;;;;;14.01;39.28;98208.34;4861017;28;104102;-81
2022/04/20 04:58:46;;;;;;;;;35.25;31.50;;;;;13.99;39.30;98205.03;4864728;28;103078;-80
2022/04/20 05:01:13;;;;;;;;;37.00;32.00;;;;;13.99;38.94;98215.91;4857103;28;104278;-81
2022/04/20 05:03:40;;;;;;;;;33.50;31.25;;;;;13.99;38.89;98212.34;4840948;28;102373;-81
2022/04/20 05:06:07;;;;;;;;;34.75;31.75;;;;;13.98;38.36;98214.25;4841557;28;103318;-81
2022/04/20 05:08:34;;;;;;;;;34.50;31.50;;;;;13.97;38.19;98206.31;4852171;28;103257;-81
2022/04/20 05:11:01;;;;;;;;;31.50;29.00;;;;;13.97;37.97;98209.03;4844092;28;104037;-81
2022/04/20 05:13:28;;;;;;;;;33.00;30.50;;;;;13.96;38.93;98200.03;4863811;28;102352;-81
2022/04/20 05:15:55;;;;;;;;;33.25;28.50;;;;;13.95;39.03;98214.72;4860692;28;102553;-81
2022/04/20 05:18:22;;;;;;;;;34.75;29.75;;;;;13.95;38.57;98198.41;4862349;28;103391;-81
2022/04/20 05:20:49;;;;;;;;;33.25;29.25;;;;;13.93;37.82;98211.38;4866668;28;104107;-81
2022/04/20 05:23:15;;;;;;;;;35.00;29.50;;;;;13.93;38.19;98211.38;4867565;28;102658;-81
2022/04/20 05:25:42;;;;;;;;;28.50;27.25;;;;;13.93;38.03;98208.69;4868820;28;102055;-81
2022/04/20 05:28:09;;;;;;;;;39.00;30.50;;;;;13.95;37.89;98213.88;4873745;28;102138;-80
2022/04/20 05:30:36;;;;;;;;;40.25;32.00;;;;;13.95;37.79;98213.88;4871875;28;104141;-81
2022/04/20 05:33:04;;;;;;;;;31.00;27.25;;;;;13.92;38.27;98204.28;4866991;28;102325;-81
2022/04/20 05:35:31;;;;;;;;;36.00;32.25;;;;;13.93;38.10;98210.56;4871601;28;102428;-81
2022/04/20 05:43:29;;;;;;;;;29.00;27.50;;;;;13.92;37.48;98204.28;4872353;28;102335;-81
2022/04/20 05:45:55;;;;;;;;;33.00;28.50;;;;;13.91;37.36;98202.66;4872378;28;102762;-81
2022/04/20 05:48:24;;;;;;;;;28.00;24.00;;;;;13.90;38.11;98198.28;4868458;28;102451;-81
2022/04/20 05:50:51;;;;;;;;;33.75;30.00;;;;;13.90;38.09;98194.72;4854742;28;103494;-81
2022/04/20 05:53:18;;;;;;;;;32.75;28.75;;;;;13.89;37.67;98199.31;4872586;28;102405;-81
2022/04/20 05:55:45;;;;;;;;;32.75;29.00;;;;;13.89;37.88;98203.94;4870910;28;102363;-81
2022/04/20 05:58:12;;;;;;;;;28.75;27.00;;;;;13.87;37.87;98201.44;4873550;28;102327;-81
2022/04/20 06:00:38;;;;;;;;;32.00;28.50;;;;;13.88;37.92;98197.66;4870728;28;104402;-81
2022/04/20 06:03:05;;;;;;;;;35.25;30.00;;;;;13.89;37.37;98195.78;4863945;28;102529;-81
2022/04/20 06:05:33;;;;;;;;;35.00;29.75;;;;;13.85;37.46;98198.13;4871531;28;102090;-81
2022/04/20 06:07:59;;;;;;;;;31.50;28.00;;;;;13.85;38.29;98192.69;4874781;28;102454;-81
2022/04/20 06:10:29;;;;;;;;;33.25;30.50;;;;;13.84;37.95;98196.47;4869328;28;104920;-81
2022/04/20 06:12:56;;;;;;;;;27.50;26.25;;;;;13.85;37.05;98196.25;4853320;28;102182;-81
2022/04/20 06:15:23;;;;;;;;;25.00;23.75;;;;;13.85;37.58;98184.56;4872136;28;102180;-81
2022/04/20 06:17:50;;;;;;;;;28.25;24.75;;;;;13.85;37.30;98187.25;4871433;28;103278;-81
2022/04/20 06:20:17;;;;;;;;;27.00;23.50;;;;;13.84;37.90;98189.16;4866398;28;104122;-81
2022/04/20 06:22:44;;;;;;;;;33.25;27.50;;;;;13.85;37.62;98195.41;4872974;28;102368;-81
2022/04/20 06:25:11;;;;;;;;;35.25;30.50;;;;;13.86;37.15;98194.38;4852080;29;103588;-81
2022/04/20 06:27:38;;;;;;;;;29.25;25.75;;;;;13.86;37.50;98188.94;4852563;29;102380;-81
2022/04/20 06:30:05;;;;;;;;;34.00;28.25;;;;;13.86;37.99;98186.22;4836966;29;104287;-81
2022/04/20 06:32:33;;;;;;;;;33.25;29.50;;;;;13.85;37.87;98181.84;4851924;29;102351;-81
2022/04/20 06:35:00;;;;;;;;;28.75;26.00;;;;;13.85;37.46;98179.94;4848781;28;102808;-81
2022/04/20 06:37:27;;;;;;;;;31.75;24.75;;;;;13.85;38.15;98179.13;4853939;29;102354;-81
2022/04/20 06:39:56;;;;;;;;;26.25;24.50;;;;;13.84;37.44;98172.00;4837272;29;105154;-81
2022/04/20 06:42:23;;;;;;;;;30.75;26.75;;;;;13.83;38.09;98171.19;4853066;29;102578;-81
2022/04/20 06:44:50;;;;;;;;;28.25;27.00;;;;;13.84;37.17;98170.13;4849559;29;102105;-81
2022/04/20 06:47:16;;;;;;;;;32.25;28.50;;;;;13.83;38.08;98173.06;4836744;29;102089;-81
2022/04/20 06:49:43;;;;;;;;;30.50;26.75;;;;;13.83;37.16;98168.47;4846581;29;104094;-81
2022/04/20 07:00:28;;;;;;;;;27.50;25.50;;;;;13.82;37.61;98157.84;4851078;29;104471;-81
2022/04/20 07:03:01;;;;;;;;;31.75;26.25;;;;;13.79;37.84;98150.13;4847265;29;102356;-81
2022/04/20 07:05:28;;;;;;;;;30.50;24.50;;;;;13.82;37.33;98160.56;4833799;29;102287;-81
2022/04/20 07:08:00;;;;;;;;;29.25;25.50;;;;;13.83;37.16;98154.03;4853081;29;102195;-81
2022/04/20 07:10:28;;;;;;;;;24.75;23.75;;;;;13.84;37.35;98151.09;4854398;29;104122;-81
2022/04/20 07:12:55;;;;;;;;;26.00;24.25;;;;;13.83;37.90;98152.16;4850311;29;102504;-81
2022/04/20 07:15:21;;;;;;;;;27.25;24.50;;;;;13.83;37.77;98151.31;4843360;29;104074;-81
2022/04/20 07:17:48;;;;;;;;;23.25;22.50;;;;;13.84;37.29;98142.13;4853986;29;102287;-81
2022/04/20 07:20:18;;;;;;;;;25.75;24.00;;;;;13.83;37.78;98148.59;4831638;29;103444;-81
2022/04/20 07:22:48;;;;;;;;;29.50;25.25;;;;;13.84;37.70;98142.13;4851751;29;102407;-80
2022/04/20 07:25:16;;;;;;;;;27.25;25.00;;;;;13.83;36.88;98146.72;4846415;28;102185;-81
2022/04/20 07:27:48;;;;;;;;;28.25;23.75;;;;;13.83;37.80;98148.59;4872152;28;102727;-81
2022/04/20 07:30:15;;;;;;;;;26.75;22.75;;;;;13.84;36.91;98144.84;4871809;28;104212;-80
2022/04/20 07:32:43;;;;;;;;;27.75;23.00;;;;;13.83;37.64;98145.88;4871799;28;102128;-81
2022/04/20 07:35:10;;;;;;;;;26.25;23.00;;;;;13.84;36.91;98134.81;4833425;28;102830;-81
2022/04/20 07:37:37;;;;;;;;;26.75;24.50;;;;;13.82;36.95;98138.81;4852738;28;102851;-81
2022/04/20 07:40:06;;;;;;;;;27.00;24.75;;;;;13.82;37.00;98134.19;4864823;28;103023;-81
2022/04/20 07:42:37;;;;;;;;;31.75;27.25;;;;;13.83;37.66;98132.31;4851998;28;102376;-80
2022/04/20 07:45:07;;;;;;;;;27.75;22.50;;;;;13.82;36.57;98128.75;4868650;28;102510;-81
2022/04/20 07:47:36;;;;;;;;;22.75;20.00;;;;;13.82;37.77;98133.38;4869910;28;102423;-81
2022/04/20 07:50:20;;;;;;;;;23.25;22.75;;;;;13.83;36.58;98126.88;4861232;28;104353;-81
2022/04/20 07:52:57;;;;;;;;;27.50;24.75;;;;;13.84;37.64;98131.25;4868547;28;103436;-81
2022/04/20 07:55:32;;;;;;;;;29.25;25.25;;;;;13.85;37.62;98130.19;4867167;28;102276;-81
2022/04/20 07:58:00;;;;;;;;;30.00;25.25;;;;;13.85;37.78;98128.31;4867696;28;102429;-81
2022/04/20 08:00:27;;;;;;;;;27.75;23.25;;;;;13.85;37.05;98128.31;4850187;28;103857;-81
2022/04/20 08:03:13;;;;;;;;;24.00;21.25;;;;;13.85;36.73;98127.47;4872107;28;102396;-81
2022/04/20 08:05:40;;;;;;;;;28.00;23.50;;;;;13.85;37.41;98119.31;4861262;28;103737;-81
2022/04/20 08:08:08;;;;;;;;;30.00;25.75;;;;;13.84;37.10;98115.78;4866256;28;103207;-81
2022/04/20 08:10:35;;;;;;;;;24.00;22.50;;;;;13.86;37.20;98110.13;4850986;28;104117;-81
2022/04/20 08:14:09;;;;;;;;;24.00;20.75;;;;;13.89;37.13;98119.69;4867460;28;102795;-80
2022/04/20 08:15:49;;;;;;;;;28.00;24.50;;;;;13.86;37.51;98112.84;4868876;28;102599;-81
2022/04/20 08:18:16;;;;;;;;;29.25;25.50;;;;;13.88;37.02;98113.41;4835081;28;103572;-81
2022/04/20 08:20:43;;;;;;;;;29.00;25.25;;;;;13.88;37.59;98116.13;4846983;28;104206;-80
2022/04/20 08:23:10;;;;;;;;;27.75;22.50;;;;;13.85;37.32;98113.88;4866876;28;102529;-81
2022/04/20 08:25:37;;;;;;;;;23.00;21.00;;;;;13.86;37.15;98112.84;4869407;28;102247;-81
2022/04/20 08:28:04;;;;;;;;;25.50;21.50;;;;;13.85;36.94;98116.59;4866779;28;102687;-81
2022/04/20 08:30:30;;;;;;;;;23.25;19.75;;;;;13.87;36.89;98106.31;4870115;28;105581;-83
2022/04/20 08:32:57;;;;;;;;;27.75;24.50;;;;;13.90;37.86;98099.59;4866508;28;102023;-81
2022/04/20 08:35:24;;;;;;;;;23.00;20.50;;;;;13.91;37.07;98104.81;4864662;28;102029;-81
2022/04/20 08:37:51;;;;;;;;;26.25;23.00;;;;;13.94;37.02;98104.34;4868886;28;102413;-81
2022/04/20 08:40:18;;;;;;;;;21.00;20.75;;;;;13.94;38.01;98100.78;4869270;28;104087;-81
2022/04/20 08:42:45;;;;;;;;;29.50;23.50;;;;;13.94;37.78;98095.34;4865267;28;102207;-81
2022/04/20 08:45:12;;;;;;;;;28.00;24.50;;;;;13.95;38.00;98095.13;4851892;28;103642;-81
2022/04/20 08:47:39;;;;;;;;;30.00;23.75;;;;;13.96;37.48;98093.25;4868810;28;102469;-81
2022/04/20 08:50:08;;;;;;;;;25.25;22.75;;;;;13.97;37.96;98092.97;4847343;28;104209;-81
2022/04/20 08:52:38;;;;;;;;;26.25;24.25;;;;;13.97;38.26;98092.16;4834414;28;102550;-81
2022/04/20 08:55:10;;;;;;;;;27.50;22.50;;;;;13.98;38.23;98093.81;4869927;28;102342;-81
2022/04/20 08:57:37;;;;;;;;;28.25;22.75;;;;;13.97;38.15;98086.72;4868910;28;102026;-81
2022/04/20 09:00:09;;;;;;;;;25.00;22.00;;;;;13.97;38.19;98076.66;4851099;28;104237;-81
2022/04/20 09:02:36;;;;;;;;;23.75;21.25;;;;;13.98;38.64;98077.50;4871242;28;102039;-81
2022/04/20 09:05:05;;;;;;;;;25.50;22.00;;;;;13.98;38.54;98081.06;4848329;28;102938;-81
2022/04/20 09:07:33;;;;;;;;;22.25;20.25;;;;;13.99;38.08;98082.72;4866926;28;102328;-81
2022/04/20 09:10:02;;;;;;;;;22.50;21.75;;;;;14.01;38.11;98090.63;4866586;28;104063;-81
2022/04/20 09:12:30;;;;;;;;;20.50;19.50;;;;;14.04;37.65;98077.41;4865900;28;102474;-81
2022/04/20 09:14:58;;;;;;;;;26.25;23.25;;;;;14.09;37.61;98082.13;4849159;28;102037;-81
2022/04/20 09:17:26;;;;;;;;;26.00;21.50;;;;;14.11;38.06;98083.53;4872583;28;102567;-81
2022/04/20 09:19:55;;;;;;;;;23.50;19.75;;;;;14.13;37.26;98078.72;4849009;28;104582;-81
2022/04/20 09:22:22;;;;;;;;;22.75;20.25;;;;;14.15;38.00;98081.16;4870832;28;102396;-81
2022/04/20 09:24:57;;;;;;;;;22.00;19.00;;;;;14.15;38.15;98073.84;4868216;28;102413;-81
2022/04/20 09:27:28;;;;;;;;;20.50;19.50;;;;;14.17;37.99;98079.88;4872179;28;102503;-81
2022/04/20 09:29:55;;;;;;;;;26.00;21.00;;;;;14.17;37.62;98079.88;4868823;28;104064;-81
2022/04/20 09:32:38;;;;;;;;;27.25;22.00;;;;;14.18;37.51;98078.78;4855775;28;102436;-81
2022/04/20 09:35:07;;;;;;;;;23.75;21.75;;;;;14.19;37.99;98069.59;4847508;28;102937;-81
2022/04/20 09:37:34;;;;;;;;;27.00;22.25;;;;;14.19;37.34;98069.59;4872959;28;103121;-81
2022/04/20 09:40:04;;;;;;;;;20.75;19.00;;;;;14.19;38.19;98069.59;4870147;28;103996;-81
2022/04/20 09:42:33;;;;;;;;;23.75;21.25;;;;;14.22;37.95;98066.41;4869873;28;103237;-81
2022/04/20 09:45:04;;;;;;;;;24.00;20.50;;;;;14.23;38.01;98059.88;4869982;28;103095;-81
2022/04/20 09:50:24;;;;;;;;;26.00;19.75;;;;;14.24;38.16;98064.25;4864460;28;104273;-81
2022/04/20 09:52:55;;;;;;;;;23.25;21.50;;;;;14.24;37.99;98061.53;4871517;28;101988;-81
2022/04/20 09:55:32;;;;;;;;;20.75;18.50;;;;;14.25;38.24;98063.22;4853360;28;102592;-81
2022/04/20 09:58:18;;;;;;;;;19.50;16.50;;;;;14.25;37.68;98057.78;4868498;28;104191;-81
2022/04/20 10:00:46;;;;;;;;;25.75;19.50;;;;;14.26;38.05;98061.31;4870250;28;104517;-81
2022/04/20 10:03:29;;;;;;;;;20.00;18.50;;;;;14.26;37.53;98059.44;4871470;28;102448;-81
2022/04/20 10:05:59;;;;;;;;;22.25;19.75;;;;;14.27;38.06;98050.19;4862884;28;102804;-81
2022/04/20 10:08:26;;;;;;;;;21.00;19.25;;;;;14.27;37.77;98050.19;4854628;28;102276;-81
2022/04/20 10:10:55;;;;;;;;;24.00;21.00;;;;;14.28;37.18;98051.84;4869225;28;104095;-81
2022/04/20 10:13:22;;;;;;;;;22.50;21.00;;;;;14.29;37.91;98050.78;4870648;28;102582;-81
2022/04/20 10:16:08;;;;;;;;;21.75;18.25;;;;;14.30;38.05;98044.28;4870740;28;102282;-81
2022/04/20 10:18:37;;;;;;;;;21.50;20.00;;;;;14.30;37.27;98040.72;4855599;28;102614;-81
2022/04/20 10:21:06;;;;;;;;;20.25;17.00;;;;;14.31;37.86;98042.41;4866506;28;103914;-81
2022/04/20 10:23:34;;;;;;;;;18.25;17.25;;;;;14.29;37.62;98042.63;4870656;28;102360;-81
2022/04/20 10:26:06;;;;;;;;;20.50;18.00;;;;;14.29;37.58;98034.47;4869421;28;102639;-81
2022/04/20 10:28:46;;;;;;;;;19.25;18.50;;;;;14.31;37.90;98036.97;4854614;28;102991;-81
2022/04/20 10:31:31;;;;;;;;;19.00;19.00;;;;;14.32;37.67;98035.06;4869128;28;104117;-81
2022/04/20 10:33:58;;;;;;;;;21.25;18.50;;;;;14.32;37.25;98035.88;4850285;28;102459;-81
2022/04/20 10:36:29;;;;;;;;;19.00;18.00;;;;;14.32;37.90;98038.59;4865386;28;102857;-81
2022/04/20 10:39:22;;;;;;;;;19.00;17.50;;;;;14.34;37.82;98038.34;4853664;28;102434;-81
2022/04/20 10:42:27;;;;;;;;;17.50;17.00;;;;;14.34;37.80;98043.78;4869229;28;103673;-81
2022/04/20 10:45:07;;;;;;;;;17.75;16.25;;;;;14.33;37.49;98026.66;4773542;29;103936;-81
2022/04/20 10:47:42;;;;;;;;;21.25;18.00;;;;;14.35;37.45;98034.59;4861165;28;102415;-81
2022/04/20 10:50:13;;;;;;;;;19.25;17.50;;;;;14.35;37.74;98034.59;4867141;28;102567;-81
2022/04/20 10:52:41;;;;;;;;;20.25;17.75;;;;;14.35;37.49;98035.41;4850691;28;104052;-81
2022/04/20 10:55:11;;;;;;;;;19.50;16.75;;;;;14.36;37.50;98036.28;4869536;28;102014;-81
2022/04/20 10:57:40;;;;;;;;;17.75;16.00;;;;;14.36;37.95;98036.28;4868968;28;102842;-81
2022/04/20 11:00:16;;;;;;;;;17.50;17.00;;;;;14.36;37.75;98039.00;4850809;28;103629;-81
2022/04/20 11:02:53;;;;;;;;;16.25;14.50;;;;;14.36;37.79;98025.41;4869234;28;104109;-81
2022/04/20 11:05:24;;;;;;;;;18.75;17.50;;;;;14.37;37.33;98029.75;4868101;28;102961;-81
2022/04/20 11:08:07;;;;;;;;;16.75;16.50;;;;;14.36;37.46;98034.38;4866821;28;102959;-81
2022/04/20 11:10:34;;;;;;;;;16.75;14.75;;;;;14.37;37.43;98027.03;4870490;28;102419;-81
2022/04/20 11:19:09;;;;;;;;;16.00;14.75;;;;;14.37;38.10;98033.28;4854125;28;102760;-81
2022/04/20 11:21:37;;;;;;;;;17.00;15.25;;;;;14.37;37.59;98030.56;4864665;28;102900;-81
2022/04/20 11:24:07;;;;;;;;;17.75;15.75;;;;;14.36;37.67;98023.50;4867618;28;104103;-81
2022/04/20 11:26:51;;;;;;;;;17.00;14.75;;;;;14.37;38.11;98029.75;4869736;28;102511;-81
2022/04/20 11:29:22;;;;;;;;;15.25;13.75;;;;;14.37;37.54;98014.25;4863829;28;103212;-81
2022/04/20 11:31:57;;;;;;;;;18.25;16.25;;;;;14.37;37.54;98022.41;4871837;28;102327;-82
2022/04/20 11:34:28;;;;;;;;;19.25;16.75;;;;;14.38;37.51;98015.09;4867530;28;104444;-81
2022/04/20 11:36:57;;;;;;;;;15.75;15.50;;;;;14.37;37.86;98016.16;4865753;28;102764;-81
2022/04/20 11:39:25;;;;;;;;;18.75;16.25;;;;;14.38;37.75;98013.19;4854031;28;103344;-81
2022/04/20 11:41:57;;;;;;;;;13.25;13.25;;;;;14.39;37.93;98016.75;4871580;28;102324;-81
2022/04/20 11:44:29;;;;;;;;;18.00;14.50;;;;;14.39;37.97;98012.13;4870630;28;103090;-81
2022/04/20 11:47:06;;;;;;;;;14.50;12.75;;;;;14.38;37.60;98010.47;4867548;28;102633;-81